Time;durP1;ratioP1;P1;durP2;ratioP2;P2;SDS_P1;SDS_P2;PMS_P1;PMS_P2;Temp;Humidity;BMP_temperature;BMP_pressure;BME280_temperature;BME280_humidity;BME280_pressure;Samples;Min_cycle;Max_cycle;Signal;HPM_P1;HPM_P2
2022/07/26 00:03:17;;;;;;;5.60;4.30;;;;;;;21.52;80.44;99650.46;657597;1277;139855;-83
2022/07/26 00:18:21;;;;;;;6.00;4.60;;;;;;;21.41;80.84;99623.21;657690;1277;139739;-83
2022/07/26 00:33:25;;;;;;;6.50;5.00;;;;;;;21.23;82.03;99610.15;657578;1277;140322;-83
2022/07/26 00:48:29;;;;;;;8.20;5.20;;;;;;;21.10;83.24;99600.40;657497;1277;139043;-83
2022/07/26 01:03:33;;;;;;;7.60;4.50;;;;;;;20.97;85.03;99590.45;657617;1277;140815;-84
2022/07/26 01:18:43;;;;;;;5.30;4.30;;;;;;;21.03;84.68;99601.20;657041;1277;140159;-82
2022/07/26 01:33:46;;;;;;;8.50;4.10;;;;;;;21.19;84.32;99592.42;657716;1277;140328;-82
2022/07/26 01:48:52;;;;;;;9.90;4.80;;;;;;;21.29;84.38;99580.83;657840;1277;139167;-82
2022/07/26 02:03:55;;;;;;;6.90;4.10;;;;;;;21.46;84.12;99576.07;657934;1277;139593;-83
2022/07/26 02:18:58;;;;;;;8.40;4.40;;;;;;;21.67;83.42;99570.70;657302;1277;139791;-82
2022/07/26 02:34:01;;;;;;;6.10;4.00;;;;;;;21.84;82.37;99562.55;664200;1276;140367;-84
2022/07/26 02:49:04;;;;;;;7.00;4.10;;;;;;;22.03;81.10;99544.73;660344;1277;139301;-83
2022/07/26 03:04:08;;;;;;;10.50;4.90;;;;;;;22.26;79.52;99558.11;657700;1277;138981;-83
2022/07/26 03:19:13;;;;;;;5.20;4.40;;;;;;;22.36;78.29;99555.02;658012;1277;140155;-83
2022/07/26 03:34:17;;;;;;;5.00;4.30;;;;;;;22.31;77.59;99537.41;658092;1277;140180;-83
2022/07/26 03:49:20;;;;;;;13.20;4.90;;;;;;;22.39;77.09;99540.66;663419;1276;139590;-82
2022/07/26 04:04:24;;;;;;;5.40;4.90;;;;;;;22.67;76.79;99538.34;658393;1277;140885;-83
2022/07/26 04:19:28;;;;;;;9.20;5.90;;;;;;;22.85;76.91;99518.20;658624;1277;138732;-82
2022/07/26 04:34:31;;;;;;;9.70;6.10;;;;;;;22.86;78.20;99543.57;660648;1277;23563;-82
2022/07/26 04:49:34;;;;;;;5.90;5.30;;;;;;;22.87;78.92;99546.81;658201;1277;140533;-82
2022/07/26 05:04:38;;;;;;;9.90;5.30;;;;;;;23.33;77.66;99547.61;657547;1277;138885;-82
2022/07/26 05:19:41;;;;;;;13.80;5.90;;;;;;;23.67;76.58;99559.40;656989;1277;139843;-82
2022/07/26 05:34:50;;;;;;;11.10;7.00;;;;;;;24.12;75.31;99562.35;655717;1277;139104;-82
2022/07/26 05:49:54;;;;;;;11.10;5.90;;;;;;;24.32;74.49;99586.14;656193;1275;139121;-85
2022/07/26 06:04:57;;;;;;;7.00;5.40;;;;;;;24.24;75.24;99625.36;657240;1277;138362;-82
2022/07/26 06:20:01;;;;;;;13.10;5.50;;;;;;;23.70;79.45;99626.06;656038;1277;140095;-82
2022/07/26 06:35:05;;;;;;;10.60;5.70;;;;;;;22.45;90.16;99656.63;658049;1277;138894;-82
2022/07/26 06:50:09;;;;;;;7.20;5.70;;;;;;;22.39;94.47;99654.02;659040;1277;139003;-82
2022/07/26 07:05:12;;;;;;;10.50;5.20;;;;;;;22.98;94.08;99641.52;658180;1277;138741;-83
2022/07/26 07:20:16;;;;;;;6.70;5.50;;;;;;;23.82;93.08;99622.02;657533;1277;139584;-82
2022/07/26 07:35:20;;;;;;;10.10;5.80;;;;;;;23.99;92.62;99637.77;657928;1276;140491;-82
2022/07/26 07:50:24;;;;;;;10.30;5.00;;;;;;;23.69;91.50;99634.98;657248;1276;140249;-82
2022/07/26 08:05:30;;;;;;;7.60;5.40;;;;;;;23.55;92.64;99633.05;657346;1276;140767;-84
2022/07/26 08:20:33;;;;;;;6.60;5.80;;;;;;;23.60;94.04;99646.00;657415;1276;139976;-85
2022/07/26 08:35:37;;;;;;;8.90;6.80;;;;;;;23.42;97.71;99685.88;658437;1276;139641;-83
2022/07/26 08:50:40;;;;;;;9.40;6.90;;;;;;;23.63;99.46;99702.23;658994;1276;140473;-85
2022/07/26 09:05:44;;;;;;;13.00;7.70;;;;;;;23.87;100.00;99733.70;659139;1276;139026;-83
2022/07/26 09:20:48;;;;;;;12.00;7.40;;;;;;;24.49;100.00;99750.05;657895;1276;140621;-84
2022/07/26 09:36:04;;;;;;;13.10;8.40;;;;;;;24.18;100.00;99757.90;657910;1276;140742;-83
2022/07/26 09:51:10;;;;;;;14.40;8.20;;;;;;;23.33;100.00;99781.99;661239;1276;139589;-84
2022/07/26 10:06:14;;;;;;;13.20;11.30;;;;;;;22.84;100.00;99800.73;659761;1276;139144;-83
2022/07/26 10:21:24;;;;;;;9.50;7.40;;;;;;;22.35;100.00;99821.64;656381;1276;401098;-83
2022/07/26 10:36:32;;;;;;;7.60;5.50;;;;;;;22.90;100.00;99836.66;657268;1277;140401;-84
2022/07/26 10:51:39;;;;;;;6.00;3.50;;;;;;;23.67;100.00;99849.81;660088;1276;140158;-84
2022/07/26 11:06:44;;;;;;;5.10;2.90;;;;;;;24.02;94.19;99871.34;655949;1276;139652;-82
2022/07/26 11:21:58;;;;;;;9.20;5.00;;;;;;;24.31;90.05;99893.31;655932;1277;138915;-84
2022/07/26 11:37:05;;;;;;;3.80;2.80;;;;;;;24.13;89.42;99900.52;656611;1277;138954;-85
2022/07/26 11:52:10;;;;;;;5.90;3.70;;;;;;;23.39;90.41;99903.15;663802;1277;139870;-81
2022/07/26 12:07:17;;;;;;;7.40;4.10;;;;;;;23.42;92.22;99902.73;657760;1277;140906;-85
2022/07/26 12:22:23;;;;;;;4.80;4.20;;;;;;;23.55;91.65;99901.09;657741;1277;138770;-83
2022/07/26 12:37:33;;;;;;;7.80;4.40;;;;;;;23.40;92.56;99895.05;657376;1277;139596;-83
2022/07/26 12:52:43;;;;;;;5.10;3.80;;;;;;;23.18;93.17;99902.50;658534;1276;139330;-84
2022/07/26 13:07:47;;;;;;;6.50;3.70;;;;;;;23.20;92.54;99886.61;661789;1277;139441;-82
2022/07/26 13:22:50;;;;;;;8.00;4.80;;;;;;;23.62;92.37;99885.89;659443;1277;23522;-80
2022/07/26 13:37:56;;;;;;;5.70;3.90;;;;;;;23.58;91.88;99879.20;657370;1277;22703;-80
2022/07/26 13:53:01;;;;;;;6.40;4.50;;;;;;;23.83;91.91;99875.41;659549;1277;24255;-81
2022/07/26 14:08:05;;;;;;;6.10;4.00;;;;;;;24.03;91.67;99871.48;661798;1277;140052;-80
2022/07/26 14:23:09;;;;;;;4.50;3.60;;;;;;;24.14;91.73;99869.61;658974;1277;140108;-80
2022/07/26 14:38:13;;;;;;;7.40;4.70;;;;;;;24.41;90.97;99866.61;659378;1277;144202;-80
2022/07/26 14:53:30;;;;;;;7.70;4.60;;;;;;;24.40;90.70;99868.20;657815;1277;138976;-81
2022/07/26 15:08:36;;;;;;;4.60;3.90;;;;;;;24.45;90.73;99863.52;657721;1276;139104;-81
2022/07/26 15:23:40;;;;;;;6.40;3.80;;;;;;;24.69;89.18;99857.91;658953;1277;140170;-82
2022/07/26 15:38:46;;;;;;;7.80;4.40;;;;;;;24.60;87.39;99846.94;656808;1277;140047;-82
2022/07/26 15:53:50;;;;;;;6.50;4.20;;;;;;;24.77;86.65;99835.89;655882;1277;141783;-84
2022/07/26 16:08:54;;;;;;;6.20;4.40;;;;;;;24.83;85.39;99834.67;656141;1276;139132;-81
2022/07/26 16:24:17;;;;;;;6.50;3.30;;;;;;;24.81;83.52;99844.17;657261;1277;139046;-84
2022/07/26 16:39:20;;;;;;;8.00;3.40;;;;;;;24.74;82.72;99850.59;657974;1277;139062;-84
2022/07/26 16:54:25;;;;;;;4.40;3.00;;;;;;;24.60;83.10;99861.20;657893;1277;140689;-82
2022/07/26 17:09:29;;;;;;;5.00;3.00;;;;;;;24.55;83.35;99863.87;656594;1277;139400;-84
2022/07/26 17:24:32;;;;;;;5.80;3.10;;;;;;;24.44;83.08;99873.05;657458;1277;140632;-83
2022/07/26 17:39:35;;;;;;;6.50;3.80;;;;;;;24.26;83.37;99873.75;659321;1277;138953;-82
2022/07/26 17:54:56;;;;;;;68.50;37.20;;;;;;;24.16;82.54;99877.86;658098;1277;140080;-82
2022/07/26 18:09:59;;;;;;;8.60;4.80;;;;;;;24.15;82.13;99875.28;657113;1277;139841;-84
2022/07/26 18:25:05;;;;;;;9.30;4.20;;;;;;;24.02;81.46;99879.13;659808;1277;24467;-82
2022/07/26 18:40:09;;;;;;;6.00;4.50;;;;;;;23.65;82.86;99884.19;656291;1277;140296;-82
2022/07/26 18:55:13;;;;;;;34.40;15.70;;;;;;;23.38;84.11;99891.67;659459;1277;140450;-82
2022/07/26 19:10:18;;;;;;;14.00;6.60;;;;;;;23.14;85.28;99900.45;659840;1277;139980;-82
2022/07/26 19:25:29;;;;;;;6.80;4.20;;;;;;;22.79;87.59;99911.33;659749;1277;140134;-82
2022/07/26 19:40:33;;;;;;;6.80;3.50;;;;;;;22.61;89.16;99928.77;661518;1277;139545;-82
2022/07/26 19:55:40;;;;;;;3.70;2.20;;;;;;;23.21;85.05;99949.09;663077;1277;138896;-83
2022/07/26 20:10:43;;;;;;;4.90;1.90;;;;;;;22.94;84.79;99968.88;664100;1277;139120;-83
2022/07/26 20:25:46;;;;;;;3.30;1.70;;;;;;;22.59;85.75;99987.73;662378;1277;139080;-84
2022/07/26 20:40:50;;;;;;;2.60;1.80;;;;;;;22.13;88.07;99999.41;656983;1277;139691;-82
2022/07/26 20:55:54;;;;;;;2.50;2.00;;;;;;;21.06;92.80;100018.07;656578;1277;138836;-82
2022/07/26 21:10:58;;;;;;;5.40;1.70;;;;;;;20.48;96.70;100040.89;659430;1276;140652;-81
2022/07/26 21:26:01;;;;;;;3.50;1.70;;;;;;;20.21;97.44;100058.30;659587;1277;140487;-82
2022/07/26 21:41:05;;;;;;;2.70;1.60;;;;;;;19.96;97.61;100072.78;664941;1276;139267;-83
2022/07/26 21:56:10;;;;;;;5.30;1.90;;;;;;;19.81;97.26;100083.66;659699;1276;139055;-82
2022/07/26 22:11:13;;;;;;;2.90;1.40;;;;;;;19.85;97.05;100098.80;657588;1276;139222;-82
2022/07/26 22:26:19;;;;;;;2.00;1.00;;;;;;;19.78;95.71;100110.07;657397;1276;398017;-82
2022/07/26 22:41:23;;;;;;;4.70;1.10;;;;;;;19.63;91.61;100122.65;657757;1276;138941;-82
2022/07/26 22:56:26;;;;;;;2.20;0.60;;;;;;;19.44;86.13;100125.84;656952;1277;139854;-82
2022/07/26 23:11:29;;;;;;;2.40;1.00;;;;;;;19.37;80.70;100132.19;657572;1276;139862;-82
2022/07/26 23:26:33;;;;;;;1.90;0.90;;;;;;;19.95;74.90;100141.75;657601;1276;139866;-82
2022/07/26 23:41:37;;;;;;;6.00;0.90;;;;;;;19.94;73.87;100155.14;657086;1276;140574;-83
2022/07/26 23:56:41;;;;;;;4.50;1.00;;;;;;;19.64;73.83;100155.69;658036;1276;140388;-82
